Terminal Aerodrome Forecast
Issued by NWS

Home | Current Version | Previous Version | Text Only | Print | Product List | Glossary On
Versions: 1 2 3 4 5 6 7 8 9 10 11 12 13 14 15 16 17 18 19 20 21 22 23 24 25 26 27 28 29 30 31 32 33 34 35 36 37 38 39 40 41
000
FTAK31 PAFA 221739
TAFAFA
TAF
PAFA 221739Z 2218/2324 20004KT P6SM BKN050 BKN100
     FM222100 24004KT P6SM SCT100 BKN200
     FM231200 19002KT P6SM OVC100
     FM231800 24003KT 6SM -RA BR OVC035
     FM232100 26004KT 3SM -RA BR OVC015=

USA.gov is the U.S. government's official web portal to all federal, state and local government web resources and services.